createdAt,value
2019-04-23T00:00:07.255Z,12.10
2019-04-23T00:02:40.805Z,11.17
2019-04-23T00:05:22.919Z,10.70
2019-04-23T00:07:49.720Z,10.30
2019-04-23T00:12:49.593Z,9.83
2019-04-23T00:15:13.400Z,13.33
2019-04-23T00:17:48.141Z,11.30
2019-04-23T00:20:14.685Z,10.63
2019-04-23T00:22:51.798Z,10.50
2019-04-23T00:25:45.615Z,12.50
2019-04-23T00:28:07.894Z,13.80
2019-04-23T00:30:50.005Z,10.63
2019-04-23T00:33:07.372Z,8.93
2019-04-23T00:35:37.183Z,12.27
2019-04-23T00:38:09.073Z,12.37
2019-04-23T00:40:34.081Z,11.00
2019-04-23T00:43:01.965Z,8.03
2019-04-23T00:45:41.238Z,9.87
2019-04-23T00:48:01.982Z,8.40
2019-04-23T00:50:46.543Z,8.90
2019-04-23T00:53:04.572Z,8.37
2019-04-23T00:55:35.652Z,8.93
2019-04-23T00:58:08.495Z,9.50
2019-04-23T01:00:42.416Z,9.43
2019-04-23T01:03:10.262Z,8.53
2019-04-23T01:05:37.018Z,8.67
2019-04-23T01:08:05.074Z,9.10
2019-04-23T01:10:56.374Z,8.73
2019-04-23T01:13:36.307Z,8.90
2019-04-23T01:15:57.735Z,12.20
2019-04-23T01:20:53.596Z,13.20
2019-04-23T01:23:23.307Z,8.80
2019-04-23T01:25:58.857Z,10.43
2019-04-23T01:28:51.829Z,8.73
2019-04-23T01:31:29.003Z,8.97
2019-04-23T01:33:51.466Z,8.30
2019-04-23T01:36:23.476Z,8.90
2019-04-23T01:38:55.743Z,7.37
2019-04-23T01:41:20.494Z,8.73
2019-04-23T01:43:47.402Z,9.60
2019-04-23T01:46:16.426Z,8.67
2019-04-23T01:51:19.681Z,8.67
2019-04-23T01:56:19.732Z,10.67
2019-04-23T01:58:52.601Z,8.27
2019-04-23T02:01:21.475Z,10.83
2019-04-23T02:03:54.743Z,9.93
2019-04-23T02:06:19.824Z,12.17
2019-04-23T02:08:56.866Z,10.50
2019-04-23T02:11:20.270Z,17.13
2019-04-23T02:13:49.137Z,10.80
2019-04-23T02:16:19.290Z,13.13
2019-04-23T02:18:49.305Z,10.20
2019-04-23T02:21:22.533Z,12.33
2019-04-23T02:24:12.162Z,9.60
2019-04-23T02:26:36.954Z,11.87
2019-04-23T02:31:49.004Z,9.37
2019-04-23T02:36:45.110Z,7.80
2019-04-23T02:39:13.034Z,11.57
2019-04-23T02:42:14.871Z,10.77
2019-04-23T02:44:21.115Z,10.73
2019-04-23T02:46:53.913Z,10.77
2019-04-23T02:49:36.031Z,9.07
2019-04-23T02:59:21.358Z,11.50
2019-04-23T03:01:53.914Z,12.60
2019-04-23T03:04:26.852Z,14.73
2019-04-23T03:06:45.943Z,12.87
2019-04-23T03:09:20.990Z,20.47
2019-04-23T03:11:52.004Z,20.33
2019-04-23T03:14:17.082Z,19.23
2019-04-23T03:16:54.737Z,17.80
2019-04-23T03:19:21.745Z,24.47
2019-04-23T03:24:36.440Z,18.37
2019-04-23T03:27:14.357Z,22.20
2019-04-23T03:39:30.208Z,20.83
2019-04-23T03:44:29.844Z,23.10
2019-04-23T03:46:53.375Z,26.97
2019-04-23T03:49:32.771Z,27.70
2019-04-23T03:59:39.339Z,23.30
2019-04-23T04:09:34.027Z,22.87
2019-04-23T04:11:54.878Z,23.97
2019-04-23T04:17:02.458Z,30.53
2019-04-23T04:19:35.008Z,26.53
2019-04-23T04:27:09.125Z,28.07
2019-04-23T04:29:39.587Z,29.57
2019-04-23T04:32:03.666Z,27.27
2019-04-23T04:37:28.102Z,22.87
2019-04-23T04:39:33.555Z,25.23
2019-04-23T04:49:36.568Z,28.80
2019-04-23T04:52:15.756Z,31.87
2019-04-23T04:57:00.075Z,24.87
2019-04-23T04:59:53.888Z,25.90
2019-04-23T05:02:11.676Z,22.77
2019-04-23T05:04:39.905Z,25.07
2019-04-23T05:07:18.948Z,25.07
2019-04-23T05:14:33.426Z,37.67
2019-04-23T05:17:02.981Z,38.23
2019-04-23T05:19:40.781Z,42.10
2019-04-23T05:22:06.981Z,34.70
2019-04-23T05:24:30.583Z,31.03
2019-04-23T05:27:01.127Z,32.63
2019-04-23T05:29:34.141Z,31.27
2019-04-23T05:32:00.786Z,27.47
2019-04-23T05:34:27.338Z,22.87
2019-04-23T05:37:00.093Z,32.10
2019-04-23T05:41:58.515Z,42.67
2019-04-23T05:47:07.250Z,24.47
2019-04-23T05:49:31.874Z,15.63
2019-04-23T05:52:04.338Z,13.30
2019-04-23T05:54:37.107Z,13.07
2019-04-23T05:56:56.278Z,9.67
2019-04-23T05:59:30.015Z,10.90
2019-04-23T06:02:07.803Z,10.00
2019-04-23T06:09:30.688Z,18.50
2019-04-23T06:12:02.877Z,25.53
2019-04-23T06:14:44.507Z,18.60
2019-04-23T06:17:09.256Z,20.17
2019-04-23T06:19:27.618Z,18.53
2019-04-23T06:24:34.693Z,19.40
2019-04-23T06:27:06.714Z,19.30
2019-04-23T06:29:39.398Z,19.90
2019-04-23T06:31:58.521Z,18.17
2019-04-23T06:34:35.836Z,17.47
2019-04-23T06:37:02.030Z,18.10
2019-04-23T06:39:55.394Z,16.27
2019-04-23T06:42:20.736Z,14.40
2019-04-23T06:44:37.907Z,17.67
2019-04-23T06:47:06.943Z,14.03
2019-04-23T06:49:45.795Z,11.17
2019-04-23T06:52:14.925Z,11.23
2019-04-23T06:57:16.304Z,5.27
2019-04-23T06:59:37.222Z,4.40
2019-04-23T07:02:13.542Z,3.50
2019-04-23T07:04:49.848Z,3.17
2019-04-23T07:09:40.033Z,3.37
2019-04-23T07:12:15.435Z,3.27
2019-04-23T07:17:09.199Z,3.47
2019-04-23T07:19:42.125Z,3.93
2019-04-23T07:24:45.789Z,3.17
2019-04-23T07:27:13.206Z,3.60
2019-04-23T07:29:41.708Z,3.37
2019-04-23T07:32:11.089Z,2.63
2019-04-23T07:34:49.476Z,3.10
2019-04-23T07:37:15.586Z,3.53
2019-04-23T07:40:20.022Z,3.00
2019-04-23T07:42:41.890Z,3.27
2019-04-23T07:45:16.084Z,2.50
2019-04-23T07:48:11.069Z,2.47
2019-04-23T07:50:49.098Z,3.13
2019-04-23T07:53:12.879Z,2.93
2019-04-23T07:55:42.679Z,3.37
2019-04-23T07:58:17.332Z,4.27
2019-04-23T08:00:41.429Z,3.40
2019-04-23T08:03:14.290Z,6.77
2019-04-23T08:05:39.669Z,3.03
2019-04-23T08:08:07.273Z,3.43
2019-04-23T08:10:42.044Z,3.57
2019-04-23T08:13:12.031Z,3.60
2019-04-23T08:18:06.955Z,5.97
2019-04-23T08:20:47.349Z,5.40
2019-04-23T08:23:28.324Z,8.43
2019-04-23T08:26:26.744Z,5.20
2019-04-23T08:28:58.403Z,4.60
2019-04-23T08:31:18.151Z,5.17
2019-04-23T08:33:50.013Z,5.97
2019-04-23T08:38:57.667Z,5.03
2019-04-23T08:41:35.926Z,5.40
2019-04-23T08:46:43.128Z,9.80
2019-04-23T08:49:13.331Z,6.30
2019-04-23T08:51:44.063Z,7.70
2019-04-23T08:54:11.739Z,5.50
2019-04-23T08:56:42.807Z,6.57
2019-04-23T08:59:09.090Z,6.17
2019-04-23T09:01:52.723Z,5.97
2019-04-23T09:04:09.823Z,5.47
2019-04-23T09:06:35.402Z,6.00
2019-04-23T09:09:10.408Z,7.00
2019-04-23T09:11:49.049Z,7.83
2019-04-23T09:13:59.553Z,6.23
2019-04-23T09:19:16.231Z,7.00
2019-04-23T09:21:47.722Z,6.37
2019-04-23T09:24:29.079Z,7.17
2019-04-23T09:26:41.485Z,7.63
2019-04-23T09:29:14.801Z,7.07
2019-04-23T09:32:11.207Z,8.43
2019-04-23T09:34:16.606Z,8.50
2019-04-23T09:37:06.153Z,7.23
2019-04-23T09:39:42.171Z,7.87
2019-04-23T09:42:24.611Z,8.57
2019-04-23T09:45:14.552Z,8.37
2019-04-23T09:47:55.216Z,7.90
2019-04-23T09:52:57.637Z,7.80
2019-04-23T09:55:31.206Z,8.17
2019-04-23T09:58:00.742Z,7.47
2019-04-23T10:00:36.165Z,7.53
2019-04-23T10:02:41.266Z,11.33
2019-04-23T10:05:08.656Z,9.00
2019-04-23T10:07:34.951Z,10.50
2019-04-23T10:09:55.434Z,17.40
2019-04-23T10:12:26.100Z,8.03
2019-04-23T10:15:05.433Z,13.80
2019-04-23T10:17:26.155Z,8.23
2019-04-23T10:19:55.561Z,9.27
2019-04-23T10:22:25.155Z,9.43
2019-04-23T10:24:55.104Z,9.57
2019-04-23T10:27:25.063Z,8.47
2019-04-23T10:29:54.212Z,12.03
2019-04-23T10:32:22.731Z,11.60
2019-04-23T10:35:03.439Z,9.20
2019-04-23T10:37:34.292Z,9.50
2019-04-23T10:39:58.197Z,11.23
2019-04-23T10:42:21.953Z,14.93
2019-04-23T10:45:08.095Z,10.63
2019-04-23T10:48:24.950Z,10.93
2019-04-23T10:50:46.137Z,10.10
2019-04-23T10:55:51.107Z,8.83
2019-04-23T10:58:17.332Z,9.57
2019-04-23T11:00:44.802Z,8.93
2019-04-23T11:03:31.580Z,9.43
2019-04-23T11:05:52.169Z,11.93
2019-04-23T11:08:17.615Z,9.10
2019-04-23T11:10:45.513Z,8.93
2019-04-23T11:13:31.352Z,9.37
2019-04-23T11:16:38.819Z,9.10
2019-04-23T11:18:36.579Z,9.27
2019-04-23T11:21:00.547Z,9.03
2019-04-23T11:23:29.165Z,9.37
2019-04-23T11:25:55.994Z,9.67
2019-04-23T11:31:09.367Z,8.17
2019-04-23T11:33:39.240Z,8.67
2019-04-23T11:41:11.709Z,9.03
2019-04-23T11:43:34.276Z,10.37
2019-04-23T11:46:20.515Z,10.90
2019-04-23T11:48:51.362Z,9.50
2019-04-23T11:51:39.474Z,11.67
2019-04-23T11:53:42.881Z,7.60
2019-04-23T11:56:12.123Z,8.67
2019-04-23T12:01:37.119Z,7.10
2019-04-23T12:04:14.630Z,7.53
2019-04-23T12:06:39.097Z,7.73
2019-04-23T12:09:31.432Z,10.10
2019-04-23T12:17:15.222Z,8.07
2019-04-23T12:19:53.162Z,7.20
2019-04-23T12:22:10.362Z,6.90
2019-04-23T12:24:58.853Z,8.90
2019-04-23T12:32:37.534Z,9.47
2019-04-23T12:35:01.528Z,8.30
2019-04-23T12:37:33.382Z,9.00
2019-04-23T12:40:00.132Z,9.40
2019-04-23T12:42:43.642Z,6.50
2019-04-23T12:44:55.114Z,7.20
2019-04-23T12:47:40.202Z,5.33
2019-04-23T12:52:25.081Z,3.90
2019-04-23T12:55:06.829Z,6.43
2019-04-23T13:00:02.743Z,6.77
2019-04-23T13:02:32.685Z,5.57
2019-04-23T13:04:51.581Z,5.47
2019-04-23T13:07:33.796Z,6.23
2019-04-23T13:10:17.413Z,6.27
2019-04-23T13:15:02.891Z,5.37
2019-04-23T13:17:38.131Z,5.60
2019-04-23T13:20:03.768Z,6.97
2019-04-23T13:22:47.646Z,6.03
2019-04-23T13:25:06.152Z,6.40
2019-04-23T13:27:53.524Z,6.27
2019-04-23T13:30:23.343Z,6.77
2019-04-23T13:32:52.876Z,6.53
2019-04-23T13:35:27.631Z,6.30
2019-04-23T13:37:53.002Z,6.90
2019-04-23T13:40:26.151Z,7.10
2019-04-23T13:45:35.302Z,6.77
2019-04-23T13:47:54.754Z,7.57
2019-04-23T13:50:33.014Z,8.47
2019-04-23T13:55:15.362Z,6.67
2019-04-23T14:00:24.978Z,8.17
2019-04-23T14:05:27.007Z,7.73
2019-04-23T14:08:00.902Z,7.13
2019-04-23T14:13:15.129Z,8.03
2019-04-23T14:15:46.246Z,8.17
2019-04-23T14:20:53.527Z,8.10
2019-04-23T14:23:27.721Z,9.77
2019-04-23T14:26:10.194Z,8.47
2019-04-23T14:30:54.243Z,9.07
2019-04-23T14:33:26.548Z,12.83
2019-04-23T14:43:39.508Z,11.07
2019-04-23T14:46:18.794Z,11.83
2019-04-23T14:48:29.891Z,10.10
2019-04-23T14:50:56.902Z,11.50
2019-04-23T14:53:31.077Z,9.93
2019-04-23T14:56:00.500Z,10.13
2019-04-23T15:01:16.286Z,11.37
2019-04-23T15:03:39.887Z,14.00
2019-04-23T15:06:15.480Z,10.50
2019-04-23T15:08:42.247Z,11.43
2019-04-23T15:11:20.913Z,10.57
2019-04-23T15:13:38.585Z,9.80
2019-04-23T15:16:17.105Z,10.03
2019-04-23T15:28:34.034Z,10.97
2019-04-23T15:34:02.216Z,9.43
2019-04-23T15:41:49.602Z,10.70
2019-04-23T15:44:16.309Z,10.33
2019-04-23T15:49:18.276Z,9.73
2019-04-23T15:51:48.949Z,9.63
2019-04-23T15:54:15.186Z,9.73
2019-04-23T16:01:37.763Z,7.83
2019-04-23T16:03:47.148Z,8.47
2019-04-23T16:06:17.233Z,15.73
2019-04-23T16:09:06.229Z,8.43
2019-04-23T16:14:22.389Z,8.90
2019-04-23T16:16:45.456Z,11.23
2019-04-23T16:22:00.222Z,7.67
2019-04-23T16:27:19.582Z,8.97
2019-04-23T16:30:12.899Z,9.77
2019-04-23T16:35:28.393Z,7.97
2019-04-23T16:38:04.344Z,7.23
2019-04-23T16:43:00.620Z,9.23
2019-04-23T16:45:22.932Z,7.13
2019-04-23T16:47:56.076Z,10.60
2019-04-23T16:52:51.927Z,8.27
2019-04-23T16:55:24.138Z,9.20
2019-04-23T16:58:01.481Z,9.70
2019-04-23T17:03:01.713Z,11.13
2019-04-23T17:05:25.141Z,18.73
2019-04-23T17:08:28.712Z,19.97
2019-04-23T17:13:06.693Z,21.30
2019-04-23T17:15:28.101Z,34.57
2019-04-23T17:17:55.231Z,10.00
2019-04-23T17:20:31.177Z,14.37
2019-04-23T17:25:28.362Z,94.77
2019-04-23T17:28:03.658Z,11.53
2019-04-23T17:30:28.301Z,10.57
2019-04-23T17:33:07.768Z,10.30
2019-04-23T17:35:45.036Z,14.00
2019-04-23T17:38:21.180Z,9.10
2019-04-23T17:40:40.022Z,8.33
2019-04-23T17:43:08.924Z,9.57
2019-04-23T17:45:38.397Z,9.63
2019-04-23T17:48:21.730Z,17.27
2019-04-23T17:56:01.110Z,9.97
2019-04-23T17:58:25.270Z,50.83
2019-04-23T18:01:07.208Z,30.87
2019-04-23T18:03:28.318Z,15.80
2019-04-23T18:06:08.916Z,13.30
2019-04-23T18:11:05.643Z,10.50
2019-04-23T18:13:27.949Z,10.47
2019-04-23T18:16:04.119Z,42.60
2019-04-23T18:18:33.211Z,23.00
2019-04-23T18:21:19.986Z,24.80
2019-04-23T18:23:49.055Z,12.90
2019-04-23T18:26:22.867Z,14.97
2019-04-23T18:29:04.515Z,17.67
2019-04-23T18:31:31.696Z,19.63
2019-04-23T18:36:22.615Z,73.50
2019-04-23T18:39:02.958Z,50.70
2019-04-23T18:41:26.155Z,46.93
2019-04-23T18:44:04.297Z,38.97
2019-04-23T18:46:37.315Z,30.27
2019-04-23T18:49:02.167Z,24.10
2019-04-23T18:51:36.883Z,16.63
2019-04-23T18:53:56.722Z,10.73
2019-04-23T18:56:53.478Z,11.77
2019-04-23T18:59:16.122Z,10.40
2019-04-23T19:01:59.936Z,16.70
2019-04-23T19:04:41.653Z,14.43
2019-04-23T19:06:47.341Z,10.53
2019-04-23T19:10:09.987Z,10.60
2019-04-23T19:12:26.831Z,9.60
2019-04-23T19:17:42.086Z,8.80
2019-04-23T19:20:06.486Z,11.93
2019-04-23T19:25:09.383Z,13.63
2019-04-23T19:29:59.671Z,11.60
2019-04-23T19:32:39.009Z,13.07
2019-04-23T19:34:49.421Z,14.93
2019-04-23T19:37:43.544Z,13.00
2019-04-23T19:39:58.535Z,9.93
2019-04-23T19:42:42.492Z,13.43
2019-04-23T19:44:55.972Z,11.37
2019-04-23T19:47:37.645Z,10.53
2019-04-23T19:49:55.147Z,13.27
2019-04-23T19:52:52.543Z,30.77
2019-04-23T19:55:01.493Z,23.37
2019-04-23T19:57:34.020Z,13.00
2019-04-23T20:00:04.341Z,28.33
2019-04-23T20:04:59.487Z,18.33
2019-04-23T20:07:44.321Z,18.97
2019-04-23T20:09:56.560Z,15.20
2019-04-23T20:12:34.363Z,16.73
2019-04-23T20:15:01.446Z,20.17
2019-04-23T20:20:02.633Z,33.93
2019-04-23T20:22:42.123Z,48.00
2019-04-23T20:27:33.709Z,75.00
2019-04-23T20:30:21.135Z,77.23
2019-04-23T20:38:08.891Z,60.10
2019-04-23T20:40:31.115Z,52.27
2019-04-23T20:42:42.700Z,41.10
2019-04-23T20:50:00.088Z,39.77
2019-04-23T20:52:35.440Z,46.77
2019-04-23T20:55:08.430Z,48.33
2019-04-23T20:58:06.718Z,44.93
2019-04-23T21:00:20.617Z,48.87
2019-04-23T21:03:18.180Z,49.97
2019-04-23T21:07:57.463Z,49.07
2019-04-23T21:10:35.756Z,44.50
2019-04-23T21:13:06.851Z,35.87
2019-04-23T21:15:31.444Z,34.03
2019-04-23T21:23:06.154Z,26.73
2019-04-23T21:25:30.198Z,24.60
2019-04-23T21:30:55.375Z,40.27
2019-04-23T21:33:11.697Z,24.53
2019-04-23T21:36:10.719Z,34.70
2019-04-23T21:38:37.426Z,28.93
2019-04-23T21:41:16.858Z,28.00
2019-04-23T21:43:57.215Z,24.90
2019-04-23T21:46:15.899Z,25.17
2019-04-23T21:48:53.686Z,29.37
2019-04-23T21:51:15.729Z,32.67
2019-04-23T21:53:40.356Z,31.17
2019-04-23T21:56:08.628Z,35.37
2019-04-23T21:58:49.581Z,41.80
2019-04-23T22:01:33.284Z,51.73
2019-04-23T22:11:56.880Z,54.07
2019-04-23T22:19:16.756Z,16.13
2019-04-23T22:31:47.239Z,8.17
2019-04-23T22:34:24.537Z,8.43
2019-04-23T22:39:16.496Z,7.83
2019-04-23T22:41:50.452Z,11.53
2019-04-23T22:46:59.206Z,13.20
2019-04-23T22:51:56.884Z,8.10
2019-04-23T22:54:16.788Z,8.63
2019-04-23T22:56:56.704Z,9.30
2019-04-23T23:01:56.939Z,17.60
2019-04-23T23:04:20.584Z,13.33
2019-04-23T23:11:57.260Z,9.70
2019-04-23T23:14:24.188Z,13.20
2019-04-23T23:16:53.218Z,11.50
2019-04-23T23:22:01.935Z,9.97
2019-04-23T23:24:18.179Z,12.60
2019-04-23T23:29:21.852Z,17.77
2019-04-23T23:34:28.556Z,10.97
2019-04-23T23:41:59.109Z,13.57
2019-04-23T23:44:33.440Z,12.07
2019-04-23T23:49:28.538Z,12.10
2019-04-23T23:52:01.288Z,14.87
2019-04-23T23:54:18.176Z,13.40
2019-04-23T23:57:12.057Z,40.33
2019-04-23T23:59:26.898Z,34.03
